sensor_id;sensor_type;location;lat;lon;timestamp;temperature;humidity
27647;DHT22;42229;51.230;6.240;2022-07-17T00:00:44;16.20;47.90
27647;DHT22;42229;51.230;6.240;2022-07-17T00:03:11;16.20;48.50
27647;DHT22;42229;51.230;6.240;2022-07-17T00:05:39;16.10;48.20
27647;DHT22;42229;51.230;6.240;2022-07-17T00:08:05;16.00;47.80
27647;DHT22;42229;51.230;6.240;2022-07-17T00:10:32;15.90;47.50
27647;DHT22;42229;51.230;6.240;2022-07-17T00:13:00;15.80;47.60
27647;DHT22;42229;51.230;6.240;2022-07-17T00:15:26;15.80;47.50
27647;DHT22;42229;51.230;6.240;2022-07-17T00:17:52;15.70;47.90
27647;DHT22;42229;51.230;6.240;2022-07-17T00:20:18;15.60;49.70
27647;DHT22;42229;51.230;6.240;2022-07-17T00:22:44;15.60;49.00
27647;DHT22;42229;51.230;6.240;2022-07-17T00:25:13;15.50;48.40
27647;DHT22;42229;51.230;6.240;2022-07-17T00:27:39;15.40;48.00
27647;DHT22;42229;51.230;6.240;2022-07-17T00:30:05;15.40;47.90
27647;DHT22;42229;51.230;6.240;2022-07-17T00:32:33;15.30;47.90
27647;DHT22;42229;51.230;6.240;2022-07-17T00:34:59;15.30;47.90
27647;DHT22;42229;51.230;6.240;2022-07-17T00:37:25;15.20;47.80
27647;DHT22;42229;51.230;6.240;2022-07-17T00:39:52;15.10;47.80
27647;DHT22;42229;51.230;6.240;2022-07-17T00:42:18;15.10;48.00
27647;DHT22;42229;51.230;6.240;2022-07-17T00:44:44;15.00;48.10
27647;DHT22;42229;51.230;6.240;2022-07-17T00:47:14;14.90;50.20
27647;DHT22;42229;51.230;6.240;2022-07-17T00:49:42;14.90;50.60
27647;DHT22;42229;51.230;6.240;2022-07-17T00:52:09;14.80;50.10
27647;DHT22;42229;51.230;6.240;2022-07-17T00:54:37;14.80;49.80
27647;DHT22;42229;51.230;6.240;2022-07-17T00:57:08;14.80;49.80
27647;DHT22;42229;51.230;6.240;2022-07-17T00:59:36;14.80;49.20
27647;DHT22;42229;51.230;6.240;2022-07-17T01:02:03;14.70;49.10
27647;DHT22;42229;51.230;6.240;2022-07-17T01:04:31;14.70;49.00
27647;DHT22;42229;51.230;6.240;2022-07-17T01:06:58;14.60;48.90
27647;DHT22;42229;51.230;6.240;2022-07-17T01:09:25;14.60;48.70
27647;DHT22;42229;51.230;6.240;2022-07-17T01:11:53;14.50;49.00
27647;DHT22;42229;51.230;6.240;2022-07-17T01:14:20;14.50;49.20
27647;DHT22;42229;51.230;6.240;2022-07-17T01:16:47;14.50;49.00
27647;DHT22;42229;51.230;6.240;2022-07-17T01:19:13;14.40;48.90
27647;DHT22;42229;51.230;6.240;2022-07-17T01:21:40;14.40;48.90
27647;DHT22;42229;51.230;6.240;2022-07-17T01:24:07;14.30;48.80
27647;DHT22;42229;51.230;6.240;2022-07-17T01:26:33;14.30;49.00
27647;DHT22;42229;51.230;6.240;2022-07-17T01:29:00;14.20;49.00
27647;DHT22;42229;51.230;6.240;2022-07-17T01:31:26;14.20;49.00
27647;DHT22;42229;51.230;6.240;2022-07-17T01:33:52;14.10;49.10
27647;DHT22;42229;51.230;6.240;2022-07-17T01:36:22;14.00;49.10
27647;DHT22;42229;51.230;6.240;2022-07-17T01:38:49;14.00;49.10
27647;DHT22;42229;51.230;6.240;2022-07-17T01:41:16;14.00;49.20
27647;DHT22;42229;51.230;6.240;2022-07-17T01:43:42;13.90;49.40
27647;DHT22;42229;51.230;6.240;2022-07-17T01:46:08;13.90;49.30
27647;DHT22;42229;51.230;6.240;2022-07-17T01:48:35;13.80;49.40
27647;DHT22;42229;51.230;6.240;2022-07-17T01:51:02;13.80;49.40
27647;DHT22;42229;51.230;6.240;2022-07-17T01:53:29;13.70;49.30
27647;DHT22;42229;51.230;6.240;2022-07-17T01:55:55;13.70;49.40
27647;DHT22;42229;51.230;6.240;2022-07-17T01:58:21;13.60;49.50
27647;DHT22;42229;51.230;6.240;2022-07-17T02:00:47;13.60;49.60
27647;DHT22;42229;51.230;6.240;2022-07-17T02:03:13;13.50;49.50
27647;DHT22;42229;51.230;6.240;2022-07-17T02:05:40;13.50;54.50
27647;DHT22;42229;51.230;6.240;2022-07-17T02:08:06;13.50;53.60
27647;DHT22;42229;51.230;6.240;2022-07-17T02:10:32;13.50;51.70
27647;DHT22;42229;51.230;6.240;2022-07-17T02:12:58;13.40;51.10
27647;DHT22;42229;51.230;6.240;2022-07-17T02:15:25;13.40;51.00
27647;DHT22;42229;51.230;6.240;2022-07-17T02:17:51;13.40;50.80
27647;DHT22;42229;51.230;6.240;2022-07-17T02:20:17;13.30;50.60
27647;DHT22;42229;51.230;6.240;2022-07-17T02:22:44;13.30;50.60
27647;DHT22;42229;51.230;6.240;2022-07-17T02:25:11;13.30;50.70
27647;DHT22;42229;51.230;6.240;2022-07-17T02:27:38;13.20;50.70
27647;DHT22;42229;51.230;6.240;2022-07-17T02:30:07;13.20;50.70
27647;DHT22;42229;51.230;6.240;2022-07-17T02:32:36;13.10;50.80
27647;DHT22;42229;51.230;6.240;2022-07-17T02:35:02;13.10;50.80
27647;DHT22;42229;51.230;6.240;2022-07-17T02:37:29;13.10;50.90
27647;DHT22;42229;51.230;6.240;2022-07-17T02:39:55;13.10;51.20
27647;DHT22;42229;51.230;6.240;2022-07-17T02:42:22;13.00;52.40
27647;DHT22;42229;51.230;6.240;2022-07-17T02:44:50;13.00;53.00
27647;DHT22;42229;51.230;6.240;2022-07-17T02:47:24;13.00;57.40
27647;DHT22;42229;51.230;6.240;2022-07-17T02:49:52;13.00;59.50
27647;DHT22;42229;51.230;6.240;2022-07-17T02:52:18;12.90;56.20
27647;DHT22;42229;51.230;6.240;2022-07-17T02:54:45;12.90;56.00
27647;DHT22;42229;51.230;6.240;2022-07-17T02:57:11;12.90;56.00
27647;DHT22;42229;51.230;6.240;2022-07-17T02:59:38;12.90;55.50
27647;DHT22;42229;51.230;6.240;2022-07-17T03:02:05;12.90;54.10
27647;DHT22;42229;51.230;6.240;2022-07-17T03:04:31;12.90;53.50
27647;DHT22;42229;51.230;6.240;2022-07-17T03:06:57;12.80;53.10
27647;DHT22;42229;51.230;6.240;2022-07-17T03:09:23;12.90;56.30
27647;DHT22;42229;51.230;6.240;2022-07-17T03:11:50;12.80;55.10
27647;DHT22;42229;51.230;6.240;2022-07-17T03:14:16;12.80;55.40
27647;DHT22;42229;51.230;6.240;2022-07-17T03:16:42;12.70;55.50
27647;DHT22;42229;51.230;6.240;2022-07-17T03:19:08;12.80;54.40
27647;DHT22;42229;51.230;6.240;2022-07-17T03:21:35;12.70;53.70
27647;DHT22;42229;51.230;6.240;2022-07-17T03:24:01;12.70;56.40
27647;DHT22;42229;51.230;6.240;2022-07-17T03:26:27;12.70;57.00
27647;DHT22;42229;51.230;6.240;2022-07-17T03:28:53;12.70;56.30
27647;DHT22;42229;51.230;6.240;2022-07-17T03:31:19;12.60;55.30
27647;DHT22;42229;51.230;6.240;2022-07-17T03:33:46;12.60;54.60
27647;DHT22;42229;51.230;6.240;2022-07-17T03:36:12;12.60;54.30
27647;DHT22;42229;51.230;6.240;2022-07-17T03:38:38;12.60;54.00
27647;DHT22;42229;51.230;6.240;2022-07-17T03:41:04;12.60;54.00
27647;DHT22;42229;51.230;6.240;2022-07-17T03:43:31;12.50;53.80
27647;DHT22;42229;51.230;6.240;2022-07-17T03:45:57;12.50;53.60
27647;DHT22;42229;51.230;6.240;2022-07-17T03:48:23;12.50;53.60
27647;DHT22;42229;51.230;6.240;2022-07-17T03:50:49;12.50;53.60
27647;DHT22;42229;51.230;6.240;2022-07-17T03:53:15;12.40;56.10
27647;DHT22;42229;51.230;6.240;2022-07-17T03:55:42;12.50;61.20
27647;DHT22;42229;51.230;6.240;2022-07-17T03:58:08;12.40;60.30
27647;DHT22;42229;51.230;6.240;2022-07-17T04:00:34;12.40;57.90
27647;DHT22;42229;51.230;6.240;2022-07-17T04:03:00;12.40;57.10
27647;DHT22;42229;51.230;6.240;2022-07-17T04:05:27;12.40;56.80
27647;DHT22;42229;51.230;6.240;2022-07-17T04:07:53;12.40;57.60
27647;DHT22;42229;51.230;6.240;2022-07-17T04:10:19;12.40;57.00
27647;DHT22;42229;51.230;6.240;2022-07-17T04:12:45;12.40;59.20
27647;DHT22;42229;51.230;6.240;2022-07-17T04:15:11;12.40;63.60
27647;DHT22;42229;51.230;6.240;2022-07-17T04:17:38;12.40;64.50
27647;DHT22;42229;51.230;6.240;2022-07-17T04:20:04;12.40;65.40
27647;DHT22;42229;51.230;6.240;2022-07-17T04:22:30;12.40;62.90
27647;DHT22;42229;51.230;6.240;2022-07-17T04:24:57;12.50;61.10
27647;DHT22;42229;51.230;6.240;2022-07-17T04:27:23;12.50;58.70
27647;DHT22;42229;51.230;6.240;2022-07-17T04:29:49;12.50;57.90
27647;DHT22;42229;51.230;6.240;2022-07-17T04:32:15;12.50;57.40
27647;DHT22;42229;51.230;6.240;2022-07-17T04:34:42;12.50;57.00
27647;DHT22;42229;51.230;6.240;2022-07-17T04:37:08;12.50;56.90
27647;DHT22;42229;51.230;6.240;2022-07-17T04:39:34;12.50;57.20
27647;DHT22;42229;51.230;6.240;2022-07-17T04:42:00;12.50;56.50
27647;DHT22;42229;51.230;6.240;2022-07-17T04:44:26;12.50;56.40
27647;DHT22;42229;51.230;6.240;2022-07-17T04:46:53;12.50;56.80
27647;DHT22;42229;51.230;6.240;2022-07-17T04:49:21;12.50;56.70
27647;DHT22;42229;51.230;6.240;2022-07-17T04:51:47;12.50;56.60
27647;DHT22;42229;51.230;6.240;2022-07-17T04:54:13;12.50;56.50
27647;DHT22;42229;51.230;6.240;2022-07-17T04:56:39;12.60;56.50
27647;DHT22;42229;51.230;6.240;2022-07-17T04:59:06;12.60;56.50
27647;DHT22;42229;51.230;6.240;2022-07-17T05:01:32;12.60;56.50
27647;DHT22;42229;51.230;6.240;2022-07-17T05:03:59;12.70;56.30
27647;DHT22;42229;51.230;6.240;2022-07-17T05:06:26;12.70;56.50
27647;DHT22;42229;51.230;6.240;2022-07-17T05:08:52;12.70;56.50
27647;DHT22;42229;51.230;6.240;2022-07-17T05:11:18;12.80;57.60
27647;DHT22;42229;51.230;6.240;2022-07-17T05:13:44;12.90;57.00
27647;DHT22;42229;51.230;6.240;2022-07-17T05:16:11;12.90;57.00
27647;DHT22;42229;51.230;6.240;2022-07-17T05:18:37;13.00;57.00
27647;DHT22;42229;51.230;6.240;2022-07-17T05:21:03;13.10;57.10
27647;DHT22;42229;51.230;6.240;2022-07-17T05:23:30;13.20;61.00
27647;DHT22;42229;51.230;6.240;2022-07-17T05:25:56;13.20;62.40
27647;DHT22;42229;51.230;6.240;2022-07-17T05:28:23;13.40;64.00
27647;DHT22;42229;51.230;6.240;2022-07-17T05:30:49;13.50;68.70
27647;DHT22;42229;51.230;6.240;2022-07-17T05:33:15;13.60;66.60
27647;DHT22;42229;51.230;6.240;2022-07-17T05:35:41;13.70;62.20
27647;DHT22;42229;51.230;6.240;2022-07-17T05:38:09;13.80;61.00
27647;DHT22;42229;51.230;6.240;2022-07-17T05:40:35;13.90;60.30
27647;DHT22;42229;51.230;6.240;2022-07-17T05:43:02;14.00;60.30
27647;DHT22;42229;51.230;6.240;2022-07-17T05:45:28;14.10;60.60
27647;DHT22;42229;51.230;6.240;2022-07-17T05:47:54;14.20;61.30
27647;DHT22;42229;51.230;6.240;2022-07-17T05:50:20;14.30;60.80
27647;DHT22;42229;51.230;6.240;2022-07-17T05:52:47;14.40;60.00
27647;DHT22;42229;51.230;6.240;2022-07-17T05:55:13;14.50;61.10
27647;DHT22;42229;51.230;6.240;2022-07-17T05:57:39;14.60;60.30
27647;DHT22;42229;51.230;6.240;2022-07-17T06:00:05;14.70;61.00
27647;DHT22;42229;51.230;6.240;2022-07-17T06:02:38;14.80;59.80
27647;DHT22;42229;51.230;6.240;2022-07-17T06:05:04;15.00;61.10
27647;DHT22;42229;51.230;6.240;2022-07-17T06:07:30;15.10;61.70
27647;DHT22;42229;51.230;6.240;2022-07-17T06:09:57;15.20;61.10
27647;DHT22;42229;51.230;6.240;2022-07-17T06:12:23;15.30;60.10
27647;DHT22;42229;51.230;6.240;2022-07-17T06:14:49;15.40;61.00
27647;DHT22;42229;51.230;6.240;2022-07-17T06:17:15;15.60;60.60
27647;DHT22;42229;51.230;6.240;2022-07-17T06:19:41;15.70;61.70
27647;DHT22;42229;51.230;6.240;2022-07-17T06:22:08;15.80;62.50
27647;DHT22;42229;51.230;6.240;2022-07-17T06:24:34;15.90;62.30
27647;DHT22;42229;51.230;6.240;2022-07-17T06:27:00;16.00;63.20
27647;DHT22;42229;51.230;6.240;2022-07-17T06:29:26;16.10;62.00
27647;DHT22;42229;51.230;6.240;2022-07-17T06:31:53;16.20;63.00
27647;DHT22;42229;51.230;6.240;2022-07-17T06:34:19;16.40;62.00
27647;DHT22;42229;51.230;6.240;2022-07-17T06:36:45;16.50;61.20
27647;DHT22;42229;51.230;6.240;2022-07-17T06:39:12;16.60;61.30
27647;DHT22;42229;51.230;6.240;2022-07-17T06:41:38;16.70;60.50
27647;DHT22;42229;51.230;6.240;2022-07-17T06:44:04;16.80;64.70
27647;DHT22;42229;51.230;6.240;2022-07-17T06:46:31;16.90;62.20
27647;DHT22;42229;51.230;6.240;2022-07-17T06:48:57;17.10;61.90
27647;DHT22;42229;51.230;6.240;2022-07-17T06:51:23;17.20;62.40
27647;DHT22;42229;51.230;6.240;2022-07-17T06:53:50;17.30;62.30
27647;DHT22;42229;51.230;6.240;2022-07-17T06:56:16;17.40;62.30
27647;DHT22;42229;51.230;6.240;2022-07-17T06:58:42;17.50;61.40
27647;DHT22;42229;51.230;6.240;2022-07-17T07:01:08;17.70;61.40
27647;DHT22;42229;51.230;6.240;2022-07-17T07:03:35;17.80;62.90
27647;DHT22;42229;51.230;6.240;2022-07-17T07:06:01;17.90;62.00
27647;DHT22;42229;51.230;6.240;2022-07-17T07:08:27;18.00;62.60
27647;DHT22;42229;51.230;6.240;2022-07-17T07:10:54;18.10;63.20
27647;DHT22;42229;51.230;6.240;2022-07-17T07:13:20;18.20;64.80
27647;DHT22;42229;51.230;6.240;2022-07-17T07:15:49;18.40;64.10
27647;DHT22;42229;51.230;6.240;2022-07-17T07:18:15;18.50;63.20
27647;DHT22;42229;51.230;6.240;2022-07-17T07:20:41;18.50;70.90
27647;DHT22;42229;51.230;6.240;2022-07-17T07:23:08;18.70;67.40
27647;DHT22;42229;51.230;6.240;2022-07-17T07:25:34;18.70;64.30
27647;DHT22;42229;51.230;6.240;2022-07-17T07:28:00;18.80;64.30
27647;DHT22;42229;51.230;6.240;2022-07-17T07:30:26;19.00;65.70
27647;DHT22;42229;51.230;6.240;2022-07-17T07:32:53;19.10;70.80
27647;DHT22;42229;51.230;6.240;2022-07-17T07:35:19;19.20;67.40
27647;DHT22;42229;51.230;6.240;2022-07-17T07:37:45;19.30;66.70
27647;DHT22;42229;51.230;6.240;2022-07-17T07:40:12;19.50;67.40
27647;DHT22;42229;51.230;6.240;2022-07-17T07:42:38;19.60;66.80
27647;DHT22;42229;51.230;6.240;2022-07-17T07:45:04;19.70;68.10
27647;DHT22;42229;51.230;6.240;2022-07-17T07:47:31;19.80;69.30
27647;DHT22;42229;51.230;6.240;2022-07-17T07:49:57;19.90;67.80
27647;DHT22;42229;51.230;6.240;2022-07-17T07:52:24;20.00;66.90
27647;DHT22;42229;51.230;6.240;2022-07-17T07:54:50;20.20;67.70
27647;DHT22;42229;51.230;6.240;2022-07-17T07:57:16;20.30;67.60
27647;DHT22;42229;51.230;6.240;2022-07-17T07:59:42;20.40;71.00
27647;DHT22;42229;51.230;6.240;2022-07-17T08:02:09;20.50;69.80
27647;DHT22;42229;51.230;6.240;2022-07-17T08:04:35;20.60;68.50
27647;DHT22;42229;51.230;6.240;2022-07-17T08:07:01;20.80;67.80
27647;DHT22;42229;51.230;6.240;2022-07-17T08:09:27;20.90;67.90
27647;DHT22;42229;51.230;6.240;2022-07-17T08:11:54;21.10;66.90
27647;DHT22;42229;51.230;6.240;2022-07-17T08:14:20;21.20;66.20
27647;DHT22;42229;51.230;6.240;2022-07-17T08:16:46;21.30;64.40
27647;DHT22;42229;51.230;6.240;2022-07-17T08:19:12;21.50;65.50
27647;DHT22;42229;51.230;6.240;2022-07-17T08:21:39;21.60;65.20
27647;DHT22;42229;51.230;6.240;2022-07-17T08:24:05;21.70;63.70
27647;DHT22;42229;51.230;6.240;2022-07-17T08:26:31;21.80;63.90
27647;DHT22;42229;51.230;6.240;2022-07-17T08:28:57;22.00;63.90
27647;DHT22;42229;51.230;6.240;2022-07-17T08:31:23;22.10;64.10
27647;DHT22;42229;51.230;6.240;2022-07-17T08:33:51;22.10;64.30
27647;DHT22;42229;51.230;6.240;2022-07-17T08:36:17;22.20;63.60
27647;DHT22;42229;51.230;6.240;2022-07-17T08:38:43;22.30;63.60
27647;DHT22;42229;51.230;6.240;2022-07-17T08:41:09;22.50;63.80
27647;DHT22;42229;51.230;6.240;2022-07-17T08:43:36;22.50;63.10
27647;DHT22;42229;51.230;6.240;2022-07-17T08:46:02;22.60;63.10
27647;DHT22;42229;51.230;6.240;2022-07-17T08:48:29;22.70;64.20
27647;DHT22;42229;51.230;6.240;2022-07-17T08:50:58;22.70;62.00
27647;DHT22;42229;51.230;6.240;2022-07-17T08:53:25;22.90;62.80
27647;DHT22;42229;51.230;6.240;2022-07-17T08:55:51;23.00;62.40
27647;DHT22;42229;51.230;6.240;2022-07-17T08:58:17;23.10;62.60
27647;DHT22;42229;51.230;6.240;2022-07-17T09:00:43;23.20;60.40
27647;DHT22;42229;51.230;6.240;2022-07-17T09:03:10;23.20;61.60
27647;DHT22;42229;51.230;6.240;2022-07-17T09:05:40;23.40;61.70
27647;DHT22;42229;51.230;6.240;2022-07-17T09:08:07;23.40;60.30
27647;DHT22;42229;51.230;6.240;2022-07-17T09:15:45;23.70;60.80
27647;DHT22;42229;51.230;6.240;2022-07-17T09:18:11;23.80;61.50
27647;DHT22;42229;51.230;6.240;2022-07-17T09:20:45;23.90;61.10
27647;DHT22;42229;51.230;6.240;2022-07-17T09:23:11;24.00;60.80
27647;DHT22;42229;51.230;6.240;2022-07-17T09:25:39;24.00;60.70
27647;DHT22;42229;51.230;6.240;2022-07-17T09:28:07;24.10;60.70
27647;DHT22;42229;51.230;6.240;2022-07-17T09:30:35;24.20;60.60
27647;DHT22;42229;51.230;6.240;2022-07-17T09:33:05;24.30;60.90
27647;DHT22;42229;51.230;6.240;2022-07-17T09:35:32;24.30;60.10
27647;DHT22;42229;51.230;6.240;2022-07-17T09:37:59;24.40;58.50
27647;DHT22;42229;51.230;6.240;2022-07-17T09:40:25;24.50;58.90
27647;DHT22;42229;51.230;6.240;2022-07-17T09:43:10;24.50;58.90
27647;DHT22;42229;51.230;6.240;2022-07-17T09:45:36;24.50;59.80
27647;DHT22;42229;51.230;6.240;2022-07-17T09:48:03;24.70;60.00
27647;DHT22;42229;51.230;6.240;2022-07-17T09:50:29;24.70;56.20
27647;DHT22;42229;51.230;6.240;2022-07-17T09:52:56;24.60;56.30
27647;DHT22;42229;51.230;6.240;2022-07-17T09:55:29;24.70;56.10
27647;DHT22;42229;51.230;6.240;2022-07-17T09:57:57;24.70;56.70
27647;DHT22;42229;51.230;6.240;2022-07-17T10:00:25;24.80;57.70
27647;DHT22;42229;51.230;6.240;2022-07-17T10:02:51;24.90;57.90
27647;DHT22;42229;51.230;6.240;2022-07-17T10:05:18;24.90;56.90
27647;DHT22;42229;51.230;6.240;2022-07-17T10:07:45;25.00;57.30
27647;DHT22;42229;51.230;6.240;2022-07-17T10:10:15;25.00;57.20
27647;DHT22;42229;51.230;6.240;2022-07-17T10:12:43;25.10;57.80
27647;DHT22;42229;51.230;6.240;2022-07-17T10:15:11;25.20;56.80
27647;DHT22;42229;51.230;6.240;2022-07-17T10:17:37;25.30;55.90
27647;DHT22;42229;51.230;6.240;2022-07-17T10:20:04;25.40;57.70
27647;DHT22;42229;51.230;6.240;2022-07-17T10:22:40;25.50;58.00
27647;DHT22;42229;51.230;6.240;2022-07-17T10:25:11;25.60;57.70
27647;DHT22;42229;51.230;6.240;2022-07-17T10:27:45;25.70;52.70
27647;DHT22;42229;51.230;6.240;2022-07-17T10:30:28;25.80;53.70
27647;DHT22;42229;51.230;6.240;2022-07-17T10:32:59;25.80;55.00
27647;DHT22;42229;51.230;6.240;2022-07-17T10:35:27;25.90;55.60
27647;DHT22;42229;51.230;6.240;2022-07-17T10:37:57;26.00;53.20
27647;DHT22;42229;51.230;6.240;2022-07-17T10:40:34;26.00;52.70
27647;DHT22;42229;51.230;6.240;2022-07-17T10:43:04;26.00;51.60
27647;DHT22;42229;51.230;6.240;2022-07-17T10:45:39;26.00;51.30
27647;DHT22;42229;51.230;6.240;2022-07-17T10:48:09;26.00;51.30
27647;DHT22;42229;51.230;6.240;2022-07-17T10:50:49;26.10;54.10
27647;DHT22;42229;51.230;6.240;2022-07-17T10:53:17;26.10;53.60
27647;DHT22;42229;51.230;6.240;2022-07-17T10:55:53;26.20;54.60
27647;DHT22;42229;51.230;6.240;2022-07-17T11:03:30;26.50;51.40
27647;DHT22;42229;51.230;6.240;2022-07-17T11:06:07;26.60;52.00
27647;DHT22;42229;51.230;6.240;2022-07-17T11:08:35;26.60;50.90
27647;DHT22;42229;51.230;6.240;2022-07-17T11:11:06;26.70;52.50
27647;DHT22;42229;51.230;6.240;2022-07-17T11:13:32;26.80;52.20
27647;DHT22;42229;51.230;6.240;2022-07-17T11:15:58;26.90;49.60
27647;DHT22;42229;51.230;6.240;2022-07-17T11:18:24;27.00;50.90
27647;DHT22;42229;51.230;6.240;2022-07-17T11:20:55;27.10;51.60
27647;DHT22;42229;51.230;6.240;2022-07-17T11:23:24;27.10;52.30
27647;DHT22;42229;51.230;6.240;2022-07-17T11:26:02;27.20;48.80
27647;DHT22;42229;51.230;6.240;2022-07-17T11:28:34;27.30;50.70
27647;DHT22;42229;51.230;6.240;2022-07-17T11:31:01;27.30;49.70
27647;DHT22;42229;51.230;6.240;2022-07-17T11:33:29;27.40;49.40
27647;DHT22;42229;51.230;6.240;2022-07-17T11:35:55;27.50;50.20
27647;DHT22;42229;51.230;6.240;2022-07-17T11:38:25;27.50;48.00
27647;DHT22;42229;51.230;6.240;2022-07-17T11:40:53;27.60;50.20
27647;DHT22;42229;51.230;6.240;2022-07-17T11:43:19;27.70;48.20
27647;DHT22;42229;51.230;6.240;2022-07-17T11:45:45;27.80;48.50
27647;DHT22;42229;51.230;6.240;2022-07-17T11:48:12;27.80;49.00
27647;DHT22;42229;51.230;6.240;2022-07-17T11:50:38;27.90;49.90
27647;DHT22;42229;51.230;6.240;2022-07-17T11:53:05;28.00;47.80
27647;DHT22;42229;51.230;6.240;2022-07-17T11:55:35;28.20;50.00
27647;DHT22;42229;51.230;6.240;2022-07-17T11:58:03;28.30;49.50
27647;DHT22;42229;51.230;6.240;2022-07-17T12:00:29;28.50;47.30
27647;DHT22;42229;51.230;6.240;2022-07-17T12:03:02;28.70;47.80
27647;DHT22;42229;51.230;6.240;2022-07-17T12:05:33;29.00;47.00
27647;DHT22;42229;51.230;6.240;2022-07-17T12:08:00;29.20;47.00
27647;DHT22;42229;51.230;6.240;2022-07-17T12:10:28;29.50;47.70
27647;DHT22;42229;51.230;6.240;2022-07-17T12:12:59;29.80;45.70
27647;DHT22;42229;51.230;6.240;2022-07-17T12:16:00;30.00;45.60
27647;DHT22;42229;51.230;6.240;2022-07-17T12:20:48;30.70;45.10
27647;DHT22;42229;51.230;6.240;2022-07-17T12:23:32;31.00;47.00
27647;DHT22;42229;51.230;6.240;2022-07-17T12:26:06;31.30;45.40
27647;DHT22;42229;51.230;6.240;2022-07-17T12:28:33;31.60;48.90
27647;DHT22;42229;51.230;6.240;2022-07-17T12:31:00;31.90;46.30
27647;DHT22;42229;51.230;6.240;2022-07-17T12:33:27;32.20;48.90
27647;DHT22;42229;51.230;6.240;2022-07-17T12:35:53;32.40;46.80
27647;DHT22;42229;51.230;6.240;2022-07-17T12:38:19;32.60;41.90
27647;DHT22;42229;51.230;6.240;2022-07-17T12:40:46;32.80;43.00
27647;DHT22;42229;51.230;6.240;2022-07-17T12:43:12;32.90;41.50
27647;DHT22;42229;51.230;6.240;2022-07-17T12:45:38;33.00;40.60
27647;DHT22;42229;51.230;6.240;2022-07-17T12:48:05;33.00;41.90
27647;DHT22;42229;51.230;6.240;2022-07-17T12:50:31;33.20;43.80
27647;DHT22;42229;51.230;6.240;2022-07-17T12:52:58;33.30;41.10
27647;DHT22;42229;51.230;6.240;2022-07-17T12:55:24;33.50;38.90
27647;DHT22;42229;51.230;6.240;2022-07-17T12:57:50;33.60;38.60
27647;DHT22;42229;51.230;6.240;2022-07-17T13:00:16;33.70;38.90
27647;DHT22;42229;51.230;6.240;2022-07-17T13:02:42;33.80;40.50
27647;DHT22;42229;51.230;6.240;2022-07-17T13:05:09;34.00;39.70
27647;DHT22;42229;51.230;6.240;2022-07-17T13:07:35;34.20;40.30
27647;DHT22;42229;51.230;6.240;2022-07-17T13:10:01;34.50;41.10
27647;DHT22;42229;51.230;6.240;2022-07-17T13:12:28;34.80;40.20
27647;DHT22;42229;51.230;6.240;2022-07-17T13:14:54;35.00;38.20
27647;DHT22;42229;51.230;6.240;2022-07-17T13:17:20;35.20;38.90
27647;DHT22;42229;51.230;6.240;2022-07-17T13:19:46;35.30;38.90
27647;DHT22;42229;51.230;6.240;2022-07-17T13:22:12;35.50;38.20
27647;DHT22;42229;51.230;6.240;2022-07-17T13:24:39;35.70;42.50
27647;DHT22;42229;51.230;6.240;2022-07-17T13:27:05;35.90;40.40
27647;DHT22;42229;51.230;6.240;2022-07-17T13:29:31;36.10;37.10
27647;DHT22;42229;51.230;6.240;2022-07-17T13:31:57;36.20;35.90
27647;DHT22;42229;51.230;6.240;2022-07-17T13:34:24;36.10;35.10
27647;DHT22;42229;51.230;6.240;2022-07-17T13:36:51;36.00;38.00
27647;DHT22;42229;51.230;6.240;2022-07-17T13:39:17;36.00;34.70
27647;DHT22;42229;51.230;6.240;2022-07-17T13:41:43;36.00;37.60
27647;DHT22;42229;51.230;6.240;2022-07-17T13:44:09;36.10;37.90
27647;DHT22;42229;51.230;6.240;2022-07-17T13:46:36;36.10;36.10
27647;DHT22;42229;51.230;6.240;2022-07-17T13:49:02;36.30;37.50
27647;DHT22;42229;51.230;6.240;2022-07-17T13:51:29;36.40;36.00
27647;DHT22;42229;51.230;6.240;2022-07-17T13:53:56;36.60;36.20
27647;DHT22;42229;51.230;6.240;2022-07-17T13:56:34;36.70;36.60
27647;DHT22;42229;51.230;6.240;2022-07-17T13:59:00;36.80;34.40
27647;DHT22;42229;51.230;6.240;2022-07-17T14:01:27;36.90;37.20
27647;DHT22;42229;51.230;6.240;2022-07-17T14:03:53;36.90;36.50
27647;DHT22;42229;51.230;6.240;2022-07-17T14:06:20;36.80;35.10
27647;DHT22;42229;51.230;6.240;2022-07-17T14:08:46;36.80;36.40
27647;DHT22;42229;51.230;6.240;2022-07-17T14:11:13;36.80;34.70
27647;DHT22;42229;51.230;6.240;2022-07-17T14:13:40;36.70;36.10
27647;DHT22;42229;51.230;6.240;2022-07-17T14:16:06;36.50;34.60
27647;DHT22;42229;51.230;6.240;2022-07-17T14:18:32;36.40;36.00
27647;DHT22;42229;51.230;6.240;2022-07-17T14:20:59;36.30;36.00
27647;DHT22;42229;51.230;6.240;2022-07-17T14:23:25;36.30;35.40
27647;DHT22;42229;51.230;6.240;2022-07-17T14:25:51;36.30;36.80
27647;DHT22;42229;51.230;6.240;2022-07-17T14:28:18;36.30;36.60
27647;DHT22;42229;51.230;6.240;2022-07-17T14:30:44;36.40;36.50
27647;DHT22;42229;51.230;6.240;2022-07-17T14:33:10;36.60;38.00
27647;DHT22;42229;51.230;6.240;2022-07-17T14:35:36;36.80;37.30
27647;DHT22;42229;51.230;6.240;2022-07-17T14:38:03;37.10;36.20
27647;DHT22;42229;51.230;6.240;2022-07-17T14:40:32;37.30;36.30
27647;DHT22;42229;51.230;6.240;2022-07-17T14:42:58;37.50;36.40
27647;DHT22;42229;51.230;6.240;2022-07-17T14:45:24;37.70;36.90
27647;DHT22;42229;51.230;6.240;2022-07-17T14:47:50;37.90;36.40
27647;DHT22;42229;51.230;6.240;2022-07-17T14:50:17;38.00;34.20
27647;DHT22;42229;51.230;6.240;2022-07-17T14:52:43;38.10;33.70
27647;DHT22;42229;51.230;6.240;2022-07-17T14:55:09;38.20;35.20
27647;DHT22;42229;51.230;6.240;2022-07-17T14:57:35;38.20;34.70
27647;DHT22;42229;51.230;6.240;2022-07-17T15:00:02;38.20;34.80
27647;DHT22;42229;51.230;6.240;2022-07-17T15:02:29;38.20;31.80
27647;DHT22;42229;51.230;6.240;2022-07-17T15:04:55;38.20;33.70
27647;DHT22;42229;51.230;6.240;2022-07-17T15:07:21;38.30;34.70
27647;DHT22;42229;51.230;6.240;2022-07-17T15:09:48;38.20;33.60
27647;DHT22;42229;51.230;6.240;2022-07-17T15:12:14;38.20;31.20
27647;DHT22;42229;51.230;6.240;2022-07-17T15:14:40;38.20;32.10
27647;DHT22;42229;51.230;6.240;2022-07-17T15:17:06;38.10;30.60
27647;DHT22;42229;51.230;6.240;2022-07-17T15:19:32;38.00;31.10
27647;DHT22;42229;51.230;6.240;2022-07-17T15:21:59;37.90;31.30
27647;DHT22;42229;51.230;6.240;2022-07-17T15:24:25;37.80;32.90
27647;DHT22;42229;51.230;6.240;2022-07-17T15:26:51;37.80;31.20
27647;DHT22;42229;51.230;6.240;2022-07-17T15:29:18;37.80;32.30
27647;DHT22;42229;51.230;6.240;2022-07-17T15:31:44;37.90;31.60
27647;DHT22;42229;51.230;6.240;2022-07-17T15:34:10;37.90;32.20
27647;DHT22;42229;51.230;6.240;2022-07-17T15:36:36;37.90;30.30
27647;DHT22;42229;51.230;6.240;2022-07-17T15:39:03;37.90;31.70
27647;DHT22;42229;51.230;6.240;2022-07-17T15:41:31;37.90;31.70